createdAt,value
2018-06-23T00:00:40.201Z,3.83
2018-06-23T00:03:10.153Z,3.60
2018-06-23T00:05:38.815Z,4.40
2018-06-23T00:08:08.042Z,4.07
2018-06-23T00:10:37.201Z,4.17
2018-06-23T00:13:06.106Z,4.37
2018-06-23T00:15:34.866Z,4.03
2018-06-23T00:34:35.454Z,3.40
2018-06-23T00:43:41.137Z,4.53
2018-06-23T00:48:25.805Z,4.20
2018-06-23T00:50:54.571Z,4.03
2018-06-23T00:53:22.883Z,3.87
2018-06-23T00:55:51.721Z,4.00
2018-06-23T00:58:20.366Z,4.30
2018-06-23T01:00:48.873Z,3.87
2018-06-23T01:03:17.551Z,4.80
2018-06-23T01:05:45.888Z,4.60
2018-06-23T01:08:14.419Z,4.30
2018-06-23T01:10:43.198Z,4.07
2018-06-23T01:13:11.557Z,4.27
2018-06-23T01:15:39.927Z,4.20
2018-06-23T01:18:09.340Z,3.90
2018-06-23T01:20:37.755Z,4.00
2018-06-23T01:23:06.186Z,4.03
2018-06-23T01:25:34.843Z,3.80
2018-06-23T01:28:03.403Z,4.20
2018-06-23T01:30:32.002Z,4.50
2018-06-23T01:33:00.410Z,4.20
2018-06-23T01:35:28.824Z,4.20
2018-06-23T01:37:57.432Z,4.03
2018-06-23T01:40:25.927Z,4.57
2018-06-23T01:42:54.568Z,4.30
2018-06-23T01:45:23.005Z,4.77
2018-06-23T01:47:51.645Z,4.70
2018-06-23T01:50:20.340Z,4.90
2018-06-23T01:52:48.939Z,4.87
2018-06-23T01:55:17.581Z,4.70
2018-06-23T01:57:46.477Z,4.90
2018-06-23T02:00:15.186Z,4.73
2018-06-23T02:02:43.575Z,4.87
2018-06-23T02:05:12.400Z,4.17
2018-06-23T02:07:40.709Z,4.47
2018-06-23T02:10:09.328Z,4.30
2018-06-23T02:12:37.709Z,4.73
2018-06-23T02:15:09.103Z,5.23
2018-06-23T02:17:44.159Z,4.97
2018-06-23T02:20:18.596Z,3.97
2018-06-23T02:22:52.525Z,4.50
2018-06-23T02:26:30.529Z,4.80
2018-06-23T02:29:04.569Z,4.07
2018-06-23T02:31:38.675Z,4.87
2018-06-23T02:35:13.478Z,4.83
2018-06-23T02:37:42.177Z,4.70
2018-06-23T02:40:10.656Z,4.97
2018-06-23T02:42:39.144Z,5.57
2018-06-23T02:45:07.882Z,5.30
2018-06-23T02:47:36.528Z,4.20
2018-06-23T02:50:05.418Z,5.33
2018-06-23T02:52:34.164Z,4.20
2018-06-23T02:55:02.595Z,4.57
2018-06-23T02:57:31.479Z,4.30
2018-06-23T02:59:59.936Z,4.27
2018-06-23T03:02:28.536Z,4.13
2018-06-23T03:04:57.315Z,4.47
2018-06-23T03:07:26.039Z,4.13
2018-06-23T03:09:54.229Z,4.00
2018-06-23T03:12:22.716Z,4.37
2018-06-23T03:14:51.148Z,4.13
2018-06-23T03:17:19.750Z,4.00
2018-06-23T03:19:49.538Z,3.63
2018-06-23T03:22:18.300Z,4.80
2018-06-23T03:24:46.944Z,4.30
2018-06-23T03:27:15.289Z,3.63
2018-06-23T03:29:44.019Z,4.13
2018-06-23T03:32:12.556Z,3.97
2018-06-23T03:34:41.163Z,3.80
2018-06-23T03:37:09.761Z,3.73
2018-06-23T03:39:38.281Z,4.40
2018-06-23T03:42:07.199Z,4.33
2018-06-23T03:44:35.813Z,4.67
2018-06-23T03:47:04.693Z,4.17
2018-06-23T03:49:33.196Z,4.67
2018-06-23T03:52:01.586Z,4.03
2018-06-23T03:54:30.022Z,4.07
2018-06-23T03:56:58.739Z,4.43
2018-06-23T03:59:27.172Z,4.33
2018-06-23T04:01:55.668Z,4.70
2018-06-23T04:04:23.969Z,5.17
2018-06-23T04:06:52.548Z,4.93
2018-06-23T04:09:20.899Z,4.33
2018-06-23T04:11:49.342Z,4.73
2018-06-23T04:14:17.988Z,4.77
2018-06-23T04:16:46.596Z,3.80
2018-06-23T04:19:15.229Z,5.33
2018-06-23T04:21:43.738Z,5.33
2018-06-23T04:24:12.198Z,4.60
2018-06-23T04:26:40.799Z,4.60
2018-06-23T04:29:09.347Z,5.37
2018-06-23T04:31:37.774Z,5.03
2018-06-23T04:34:06.235Z,5.60
2018-06-23T04:36:35.016Z,5.50
2018-06-23T04:39:05.278Z,6.10
2018-06-23T04:41:34.212Z,5.30
2018-06-23T04:44:02.853Z,5.63
2018-06-23T04:46:31.397Z,5.53
2018-06-23T04:48:59.842Z,5.70
2018-06-23T04:51:28.516Z,6.70
2018-06-23T04:53:57.146Z,8.40
2018-06-23T04:56:25.786Z,6.60
2018-06-23T04:58:54.100Z,7.60
2018-06-23T05:01:22.705Z,8.13
2018-06-23T05:03:51.310Z,9.37
2018-06-23T05:06:19.649Z,9.30
2018-06-23T05:08:47.987Z,8.47
2018-06-23T05:11:16.618Z,7.83
2018-06-23T05:13:45.037Z,7.57
2018-06-23T05:16:13.449Z,6.03
2018-06-23T05:18:41.902Z,8.00
2018-06-23T05:21:10.241Z,7.13
2018-06-23T05:23:38.709Z,7.70
2018-06-23T05:26:07.428Z,5.70
2018-06-23T05:28:36.063Z,5.47
2018-06-23T05:31:04.599Z,5.00
2018-06-23T05:33:33.046Z,4.33
2018-06-23T05:36:01.605Z,4.50
2018-06-23T05:38:30.274Z,5.33
2018-06-23T05:40:58.794Z,5.07
2018-06-23T05:43:27.306Z,5.23
2018-06-23T05:45:56.001Z,6.50
2018-06-23T05:48:24.430Z,8.43
2018-06-23T05:50:53.028Z,5.80
2018-06-23T05:53:21.635Z,6.70
2018-06-23T05:55:50.234Z,5.47
2018-06-23T05:58:18.600Z,4.60
2018-06-23T06:00:47.110Z,4.10
2018-06-23T06:03:15.889Z,3.90
2018-06-23T06:05:44.383Z,4.10
2018-06-23T06:08:12.947Z,4.90
2018-06-23T06:10:41.507Z,4.67
2018-06-23T06:13:10.071Z,4.97
2018-06-23T06:15:38.684Z,4.67
2018-06-23T06:18:07.200Z,4.73
2018-06-23T06:20:35.671Z,4.40
2018-06-23T06:23:04.285Z,4.30
2018-06-23T06:25:32.888Z,4.37
2018-06-23T06:28:01.543Z,5.10
2018-06-23T06:30:29.975Z,5.57
2018-06-23T06:32:58.740Z,3.83
2018-06-23T06:35:27.341Z,4.17
2018-06-23T06:37:56.030Z,4.13
2018-06-23T06:40:30.142Z,3.43
2018-06-23T06:42:59.761Z,4.03
2018-06-23T06:45:28.143Z,3.60
2018-06-23T06:48:02.398Z,4.13
2018-06-23T06:50:38.207Z,4.03
2018-06-23T06:53:06.986Z,4.53
2018-06-23T06:55:38.645Z,4.17
2018-06-23T06:58:08.364Z,4.60
2018-06-23T07:00:37.138Z,3.83
2018-06-23T07:03:07.007Z,4.03
2018-06-23T07:05:35.862Z,4.43
2018-06-23T07:08:05.828Z,3.83
2018-06-23T07:10:38.921Z,4.40
2018-06-23T07:13:07.349Z,4.43
2018-06-23T07:15:45.362Z,4.07
2018-06-23T07:18:13.800Z,4.67
2018-06-23T07:20:44.870Z,4.87
2018-06-23T07:23:13.548Z,4.37
2018-06-23T07:25:42.155Z,5.03
2018-06-23T07:28:10.570Z,4.87
2018-06-23T07:30:38.956Z,4.47
2018-06-23T07:33:07.817Z,4.57
2018-06-23T07:35:37.188Z,4.50
2018-06-23T07:38:06.247Z,4.50
2018-06-23T07:40:34.990Z,5.80
2018-06-23T07:43:03.550Z,5.87
2018-06-23T07:45:31.979Z,5.80
2018-06-23T07:48:00.751Z,6.17
2018-06-23T07:50:29.804Z,13.53
2018-06-23T07:53:06.061Z,10.93
2018-06-23T07:55:34.766Z,8.00
2018-06-23T07:58:14.309Z,5.30
2018-06-23T08:00:43.280Z,6.43
2018-06-23T08:03:12.145Z,5.00
2018-06-23T08:05:42.820Z,4.03
2018-06-23T08:08:11.313Z,4.20
2018-06-23T08:10:41.297Z,4.33
2018-06-23T08:13:09.741Z,3.70
2018-06-23T08:15:38.163Z,4.13
2018-06-23T08:18:07.186Z,3.80
2018-06-23T08:20:35.605Z,3.70
2018-06-23T08:23:04.710Z,3.40
2018-06-23T08:25:33.182Z,3.23
2018-06-23T08:28:01.896Z,3.03
2018-06-23T08:30:30.397Z,3.30
2018-06-23T08:32:59.576Z,3.07
2018-06-23T08:35:29.238Z,3.60
2018-06-23T08:37:57.694Z,3.10
2018-06-23T08:40:26.296Z,3.03
2018-06-23T08:42:54.850Z,3.50
2018-06-23T08:45:23.312Z,3.23
2018-06-23T08:47:51.597Z,2.50
2018-06-23T08:50:20.541Z,3.40
2018-06-23T08:52:49.089Z,3.90
2018-06-23T08:55:18.096Z,3.40
2018-06-23T08:57:46.760Z,3.40
2018-06-23T09:00:15.233Z,3.37
2018-06-23T09:02:44.323Z,3.20
2018-06-23T09:05:12.894Z,3.57
2018-06-23T09:07:41.545Z,4.43
2018-06-23T09:10:10.139Z,5.90
2018-06-23T09:12:38.588Z,5.47
2018-06-23T09:15:07.082Z,3.73
2018-06-23T09:17:35.636Z,3.53
2018-06-23T09:20:04.189Z,3.33
2018-06-23T09:22:32.512Z,3.93
2018-06-23T09:25:01.449Z,3.53
2018-06-23T09:27:30.273Z,3.37
2018-06-23T09:29:58.812Z,3.90
2018-06-23T09:32:27.504Z,3.03
2018-06-23T09:34:55.917Z,3.60
2018-06-23T09:37:24.559Z,3.30
2018-06-23T09:39:54.154Z,3.63
2018-06-23T09:42:22.806Z,2.90
2018-06-23T09:44:51.501Z,3.10
2018-06-23T09:47:20.403Z,2.63
2018-06-23T09:49:49.191Z,3.23
2018-06-23T09:52:17.772Z,2.60
2018-06-23T09:54:46.345Z,2.77
2018-06-23T09:57:14.858Z,2.23
2018-06-23T09:59:43.986Z,2.70
2018-06-23T10:02:12.441Z,2.90
2018-06-23T10:04:40.964Z,3.00
2018-06-23T10:07:09.480Z,2.60
2018-06-23T10:09:38.480Z,2.23
2018-06-23T10:12:06.942Z,2.77
2018-06-23T10:14:35.951Z,2.20
2018-06-23T10:17:04.468Z,2.23
2018-06-23T10:19:32.992Z,2.10
2018-06-23T10:22:01.701Z,2.43
2018-06-23T10:24:30.773Z,2.40
2018-06-23T10:26:59.305Z,2.73
2018-06-23T10:29:27.896Z,2.27
2018-06-23T10:31:56.173Z,2.60
2018-06-23T10:34:24.676Z,2.37
2018-06-23T10:36:53.060Z,2.40
2018-06-23T10:39:21.540Z,1.70
2018-06-23T10:41:49.857Z,1.87
2018-06-23T10:44:18.822Z,2.43
2018-06-23T10:46:47.497Z,1.50
2018-06-23T10:49:15.830Z,2.00
2018-06-23T10:51:44.406Z,2.00
2018-06-23T10:54:13.126Z,2.23
2018-06-23T10:56:41.657Z,2.20
2018-06-23T10:59:10.425Z,2.60
2018-06-23T11:01:39.106Z,2.10
2018-06-23T11:04:07.588Z,2.67
2018-06-23T11:06:36.151Z,2.07
2018-06-23T11:09:07.674Z,2.47
2018-06-23T11:11:36.478Z,2.53
2018-06-23T11:14:05.287Z,3.20
2018-06-23T11:16:34.169Z,3.50
2018-06-23T11:19:03.374Z,3.17
2018-06-23T11:21:32.261Z,3.53
2018-06-23T11:24:00.929Z,2.90
2018-06-23T11:26:29.482Z,3.03
2018-06-23T11:28:58.426Z,2.43
2018-06-23T11:31:26.895Z,2.07
2018-06-23T11:33:55.336Z,2.43
2018-06-23T11:36:23.933Z,2.47
2018-06-23T11:38:52.448Z,2.77
2018-06-23T11:41:21.334Z,2.60
2018-06-23T11:43:50.272Z,2.30
2018-06-23T11:46:18.800Z,2.50
2018-06-23T11:48:47.667Z,2.30
2018-06-23T11:51:16.609Z,3.40
2018-06-23T11:53:45.397Z,2.77
2018-06-23T11:56:14.056Z,2.70
2018-06-23T11:58:42.618Z,3.00
2018-06-23T12:01:11.118Z,2.70
2018-06-23T12:03:40.262Z,3.37
2018-06-23T12:06:08.773Z,2.50
2018-06-23T12:08:37.225Z,2.73
2018-06-23T12:11:05.798Z,2.33
2018-06-23T12:13:34.287Z,3.20
2018-06-23T12:16:02.618Z,4.00
2018-06-23T12:18:31.115Z,4.33
2018-06-23T12:20:59.728Z,3.37
2018-06-23T12:23:28.038Z,3.00
2018-06-23T12:25:56.463Z,3.30
2018-06-23T12:28:25.032Z,3.53
2018-06-23T12:30:53.658Z,3.70
2018-06-23T12:33:22.296Z,3.80
2018-06-23T12:35:50.792Z,2.93
2018-06-23T12:38:19.348Z,3.63
2018-06-23T12:40:47.965Z,2.73
2018-06-23T12:43:16.845Z,2.97
2018-06-23T12:45:45.460Z,3.10
2018-06-23T12:48:13.899Z,2.83
2018-06-23T12:50:42.641Z,3.30
2018-06-23T12:53:11.095Z,3.43
2018-06-23T12:55:39.639Z,3.10
2018-06-23T12:58:08.305Z,2.90
2018-06-23T13:00:37.023Z,2.77
2018-06-23T13:03:05.858Z,3.00
2018-06-23T13:05:34.200Z,2.93
2018-06-23T13:08:03.029Z,2.87
2018-06-23T13:10:31.774Z,2.43
2018-06-23T13:13:00.373Z,3.43
2018-06-23T13:15:29.064Z,3.17
2018-06-23T13:17:57.815Z,2.60
2018-06-23T13:20:26.588Z,3.57
2018-06-23T13:22:55.370Z,2.70
2018-06-23T13:25:23.733Z,2.73
2018-06-23T13:27:52.593Z,2.50
2018-06-23T13:30:21.175Z,2.00
2018-06-23T13:32:50.341Z,2.17
2018-06-23T13:35:19.009Z,2.87
2018-06-23T13:37:47.686Z,2.50
2018-06-23T13:40:16.426Z,2.17
2018-06-23T13:42:45.217Z,2.20
2018-06-23T13:45:13.877Z,2.03
2018-06-23T13:47:42.333Z,2.20
2018-06-23T13:50:11.054Z,2.50
2018-06-23T13:52:39.732Z,2.30
2018-06-23T13:55:08.803Z,2.27
2018-06-23T13:57:37.470Z,1.93
2018-06-23T14:00:07.625Z,2.17
2018-06-23T14:02:36.272Z,2.03
2018-06-23T14:05:05.582Z,1.70
2018-06-23T14:07:34.273Z,2.20
2018-06-23T14:10:02.909Z,2.87
2018-06-23T14:12:31.685Z,2.20
2018-06-23T14:15:00.573Z,2.23
2018-06-23T14:17:29.483Z,2.30
2018-06-23T14:19:58.217Z,2.40
2018-06-23T14:22:26.658Z,1.90
2018-06-23T14:24:55.108Z,1.80
2018-06-23T14:27:23.886Z,2.13
2018-06-23T14:29:52.372Z,1.90
2018-06-23T14:32:20.969Z,1.90
2018-06-23T14:34:49.697Z,2.00
2018-06-23T14:37:18.445Z,1.63
2018-06-23T14:39:46.933Z,2.20
2018-06-23T14:42:15.985Z,4.80
